sensor_id;sensor_type;location;lat;lon;timestamp;pressure;altitude;pressure_sealevel;temperature;humidity
59170;BME280;52474;52.236;5.114;2023-01-26T00:00:55;102610.03;;;-0.72;100.00
59170;BME280;52474;52.236;5.114;2023-01-26T00:03:21;102588.41;;;-0.79;100.00
59170;BME280;52474;52.236;5.114;2023-01-26T00:05:47;102603.00;;;-0.64;100.00
59170;BME280;52474;52.236;5.114;2023-01-26T00:08:13;102601.28;;;-0.65;100.00
59170;BME280;52474;52.236;5.114;2023-01-26T00:10:40;102604.00;;;-0.79;100.00
59170;BME280;52474;52.236;5.114;2023-01-26T00:13:07;102600.56;;;-0.79;100.00
59170;BME280;52474;52.236;5.114;2023-01-26T00:15:34;102588.50;;;-0.88;100.00
59170;BME280;52474;52.236;5.114;2023-01-26T00:18:01;102592.88;;;-0.90;100.00
59170;BME280;52474;52.236;5.114;2023-01-26T00:20:28;102579.03;;;-0.95;100.00
59170;BME280;52474;52.236;5.114;2023-01-26T00:22:54;102583.38;;;-0.97;100.00
59170;BME280;52474;52.236;5.114;2023-01-26T00:25:20;102594.56;;;-0.89;100.00
59170;BME280;52474;52.236;5.114;2023-01-26T00:27:46;102571.28;;;-0.98;100.00
59170;BME280;52474;52.236;5.114;2023-01-26T00:30:12;102577.28;;;-0.96;100.00
59170;BME280;52474;52.236;5.114;2023-01-26T00:32:38;102580.75;;;-0.94;100.00
59170;BME280;52474;52.236;5.114;2023-01-26T00:35:04;102572.00;;;-0.87;100.00
59170;BME280;52474;52.236;5.114;2023-01-26T00:37:31;102578.91;;;-0.83;100.00
59170;BME280;52474;52.236;5.114;2023-01-26T00:39:57;102567.66;;;-0.83;100.00
59170;BME280;52474;52.236;5.114;2023-01-26T00:42:23;102550.34;;;-0.89;100.00
59170;BME280;52474;52.236;5.114;2023-01-26T00:44:49;102564.25;;;-0.90;100.00
59170;BME280;52474;52.236;5.114;2023-01-26T00:47:16;102564.22;;;-0.87;100.00
59170;BME280;52474;52.236;5.114;2023-01-26T00:49:43;102558.16;;;-0.88;100.00
59170;BME280;52474;52.236;5.114;2023-01-26T00:52:10;102558.16;;;-0.89;100.00
59170;BME280;52474;52.236;5.114;2023-01-26T00:54:36;102508.19;;;-1.17;100.00
59170;BME280;52474;52.236;5.114;2023-01-26T00:57:02;102549.47;;;-0.83;100.00
59170;BME280;52474;52.236;5.114;2023-01-26T00:59:27;102540.72;;;-0.78;100.00
59170;BME280;52474;52.236;5.114;2023-01-26T01:01:59;102554.56;;;-0.77;100.00
59170;BME280;52474;52.236;5.114;2023-01-26T01:04:28;102539.19;;;-0.97;100.00
59170;BME280;52474;52.236;5.114;2023-01-26T01:06:59;102535.72;;;-0.99;100.00
59170;BME280;52474;52.236;5.114;2023-01-26T01:09:25;102522.75;;;-1.02;100.00
59170;BME280;52474;52.236;5.114;2023-01-26T01:11:50;102533.94;;;-0.93;100.00
59170;BME280;52474;52.236;5.114;2023-01-26T01:14:16;102545.19;;;-0.91;100.00
59170;BME280;52474;52.236;5.114;2023-01-26T01:16:42;102542.50;;;-0.83;100.00
59170;BME280;52474;52.236;5.114;2023-01-26T01:19:13;102527.00;;;-0.94;100.00
59170;BME280;52474;52.236;5.114;2023-01-26T01:21:39;102530.47;;;-0.95;100.00
59170;BME280;52474;52.236;5.114;2023-01-26T01:24:05;102546.84;;;-0.83;100.00
59170;BME280;52474;52.236;5.114;2023-01-26T01:26:31;102551.16;;;-0.84;100.00
59170;BME280;52474;52.236;5.114;2023-01-26T01:28:57;102542.50;;;-0.84;100.00
59170;BME280;52474;52.236;5.114;2023-01-26T01:31:22;102541.63;;;-0.82;100.00
59170;BME280;52474;52.236;5.114;2023-01-26T01:33:48;102531.28;;;-0.91;100.00
59170;BME280;52474;52.236;5.114;2023-01-26T01:36:15;102531.28;;;-0.91;100.00
59170;BME280;52474;52.236;5.114;2023-01-26T01:38:43;102544.22;;;-0.82;100.00
59170;BME280;52474;52.236;5.114;2023-01-26T01:41:09;102536.41;;;-0.82;100.00
59170;BME280;52474;52.236;5.114;2023-01-26T01:43:36;102541.59;;;-0.80;100.00
59170;BME280;52474;52.236;5.114;2023-01-26T01:46:06;102542.47;;;-0.81;100.00
59170;BME280;52474;52.236;5.114;2023-01-26T01:48:47;102547.66;;;-0.78;100.00
59170;BME280;52474;52.236;5.114;2023-01-26T01:51:25;102545.03;;;-0.77;100.00
59170;BME280;52474;52.236;5.114;2023-01-26T01:53:55;102546.72;;;-0.73;100.00
59170;BME280;52474;52.236;5.114;2023-01-26T01:56:24;102525.16;;;-0.82;100.00
59170;BME280;52474;52.236;5.114;2023-01-26T01:58:54;102518.34;;;-0.93;100.00
59170;BME280;52474;52.236;5.114;2023-01-26T02:01:21;102548.53;;;-0.78;100.00
59170;BME280;52474;52.236;5.114;2023-01-26T02:03:49;102545.03;;;-0.77;100.00
59170;BME280;52474;52.236;5.114;2023-01-26T02:06:38;102545.03;;;-0.75;100.00
59170;BME280;52474;52.236;5.114;2023-01-26T02:09:08;102532.09;;;-0.84;100.00
59170;BME280;52474;52.236;5.114;2023-01-26T02:11:55;102544.16;;;-0.76;100.00
59170;BME280;52474;52.236;5.114;2023-01-26T02:14:23;102538.94;;;-0.74;100.00
59170;BME280;52474;52.236;5.114;2023-01-26T02:16:49;102543.28;;;-0.73;100.00
59170;BME280;52474;52.236;5.114;2023-01-26T02:19:24;102550.19;;;-0.72;100.00
59170;BME280;52474;52.236;5.114;2023-01-26T02:21:54;102530.34;;;-0.82;100.00
59170;BME280;52474;52.236;5.114;2023-01-26T02:24:25;102530.34;;;-0.82;100.00
59170;BME280;52474;52.236;5.114;2023-01-26T02:26:53;102551.03;;;-0.72;100.00
59170;BME280;52474;52.236;5.114;2023-01-26T02:29:21;102532.88;;;-0.75;100.00
59170;BME280;52474;52.236;5.114;2023-01-26T02:31:47;102527.75;;;-0.82;100.00
59170;BME280;52474;52.236;5.114;2023-01-26T02:34:13;102549.34;;;-0.74;100.00
59170;BME280;52474;52.236;5.114;2023-01-26T02:36:39;102544.13;;;-0.71;100.00
59170;BME280;52474;52.236;5.114;2023-01-26T02:39:28;102550.22;;;-0.74;100.00
59170;BME280;52474;52.236;5.114;2023-01-26T02:41:59;102544.97;;;-0.71;100.00
59170;BME280;52474;52.236;5.114;2023-01-26T02:44:43;102553.63;;;-0.69;100.00
59170;BME280;52474;52.236;5.114;2023-01-26T02:47:16;102552.72;;;-0.66;100.00
59170;BME280;52474;52.236;5.114;2023-01-26T02:49:42;102551.03;;;-0.70;100.00
59170;BME280;52474;52.236;5.114;2023-01-26T02:52:21;102554.44;;;-0.63;100.00
59170;BME280;52474;52.236;5.114;2023-01-26T02:54:54;102536.31;;;-0.73;100.00
59170;BME280;52474;52.236;5.114;2023-01-26T02:57:39;102570.00;;;-0.62;100.00
59170;BME280;52474;52.236;5.114;2023-01-26T03:00:08;102551.00;;;-0.66;100.00
59170;BME280;52474;52.236;5.114;2023-01-26T03:02:35;102557.03;;;-0.65;100.00
59170;BME280;52474;52.236;5.114;2023-01-26T03:05:02;102543.28;;;-0.73;100.00
59170;BME280;52474;52.236;5.114;2023-01-26T03:07:29;102558.78;;;-0.66;100.00
59170;BME280;52474;52.236;5.114;2023-01-26T03:09:55;102554.44;;;-0.63;100.00
59170;BME280;52474;52.236;5.114;2023-01-26T03:12:23;102536.28;;;-0.70;100.00
59170;BME280;52474;52.236;5.114;2023-01-26T03:14:49;102559.66;;;-0.63;100.00
59170;BME280;52474;52.236;5.114;2023-01-26T03:17:36;102551.78;;;-0.60;100.00
59170;BME280;52474;52.236;5.114;2023-01-26T03:20:04;102547.50;;;-0.65;100.00
59170;BME280;52474;52.236;5.114;2023-01-26T03:22:49;102527.69;;;-0.76;100.00
59170;BME280;52474;52.236;5.114;2023-01-26T03:25:33;102537.97;;;-0.66;100.00
59170;BME280;52474;52.236;5.114;2023-01-26T03:28:17;102535.41;;;-0.69;100.00
59170;BME280;52474;52.236;5.114;2023-01-26T03:30:48;102550.91;;;-0.59;100.00
59170;BME280;52474;52.236;5.114;2023-01-26T03:33:15;102544.00;;;-0.60;100.00
59170;BME280;52474;52.236;5.114;2023-01-26T03:35:42;102528.50;;;-0.73;100.00
59170;BME280;52474;52.236;5.114;2023-01-26T03:38:08;102549.16;;;-0.57;100.00
59170;BME280;52474;52.236;5.114;2023-01-26T03:40:41;102545.75;;;-0.62;100.00
59170;BME280;52474;52.236;5.114;2023-01-26T03:43:25;102553.50;;;-0.56;100.00
59170;BME280;52474;52.236;5.114;2023-01-26T03:46:09;102547.50;;;-0.65;100.00
59170;BME280;52474;52.236;5.114;2023-01-26T03:48:54;102547.34;;;-0.52;100.00
59170;BME280;52474;52.236;5.114;2023-01-26T03:51:38;102541.38;;;-0.62;100.00
59170;BME280;52474;52.236;5.114;2023-01-26T03:54:22;102554.25;;;-0.50;100.00
59170;BME280;52474;52.236;5.114;2023-01-26T03:57:07;102547.34;;;-0.51;100.00
59170;BME280;52474;52.236;5.114;2023-01-26T03:59:33;102555.16;;;-0.52;100.00
59170;BME280;52474;52.236;5.114;2023-01-26T04:02:11;102545.66;;;-0.55;100.00
59170;BME280;52474;52.236;5.114;2023-01-26T04:04:56;102547.34;;;-0.51;100.00
59170;BME280;52474;52.236;5.114;2023-01-26T04:07:44;102529.22;;;-0.60;100.00
59170;BME280;52474;52.236;5.114;2023-01-26T04:10:29;102544.75;;;-0.52;100.00
59170;BME280;52474;52.236;5.114;2023-01-26T04:12:55;102547.44;;;-0.60;100.00
59170;BME280;52474;52.236;5.114;2023-01-26T04:15:48;102554.28;;;-0.51;100.00
59170;BME280;52474;52.236;5.114;2023-01-26T04:18:33;102552.56;;;-0.51;100.00
59170;BME280;52474;52.236;5.114;2023-01-26T04:21:17;102538.66;;;-0.50;100.00
59170;BME280;52474;52.236;5.114;2023-01-26T04:23:58;102555.09;;;-0.48;100.00
59170;BME280;52474;52.236;5.114;2023-01-26T04:26:26;102552.44;;;-0.41;100.00
59170;BME280;52474;52.236;5.114;2023-01-26T04:29:05;102548.09;;;-0.41;100.00
59170;BME280;52474;52.236;5.114;2023-01-26T04:31:31;102552.47;;;-0.45;100.00
59170;BME280;52474;52.236;5.114;2023-01-26T04:34:00;102543.81;;;-0.45;100.00
59170;BME280;52474;52.236;5.114;2023-01-26T04:36:27;102522.28;;;-0.58;100.00
59170;BME280;52474;52.236;5.114;2023-01-26T04:38:54;102545.59;;;-0.49;100.00
59170;BME280;52474;52.236;5.114;2023-01-26T04:41:21;102548.06;;;-0.38;100.00
59170;BME280;52474;52.236;5.114;2023-01-26T04:43:54;102541.13;;;-0.40;100.00
59170;BME280;52474;52.236;5.114;2023-01-26T04:46:20;102547.19;;;-0.37;100.00
59170;BME280;52474;52.236;5.114;2023-01-26T04:48:46;102519.56;;;-0.50;100.00
59170;BME280;52474;52.236;5.114;2023-01-26T04:51:15;102542.84;;;-0.38;100.00
59170;BME280;52474;52.236;5.114;2023-01-26T04:53:41;102538.50;;;-0.37;100.00
59170;BME280;52474;52.236;5.114;2023-01-26T04:56:17;102540.22;;;-0.36;100.00
59170;BME280;52474;52.236;5.114;2023-01-26T04:58:44;102535.00;;;-0.35;100.00
59170;BME280;52474;52.236;5.114;2023-01-26T05:01:10;102537.63;;;-0.36;100.00
59170;BME280;52474;52.236;5.114;2023-01-26T05:03:36;102516.88;;;-0.41;100.00
59170;BME280;52474;52.236;5.114;2023-01-26T05:06:01;102532.38;;;-0.32;100.00
59170;BME280;52474;52.236;5.114;2023-01-26T05:08:28;102519.41;;;-0.36;100.00
59170;BME280;52474;52.236;5.114;2023-01-26T05:10:53;102515.13;;;-0.42;100.00
59170;BME280;52474;52.236;5.114;2023-01-26T05:13:38;102538.50;;;-0.37;100.00
59170;BME280;52474;52.236;5.114;2023-01-26T05:16:14;102525.47;;;-0.34;100.00
59170;BME280;52474;52.236;5.114;2023-01-26T05:19:00;102529.78;;;-0.33;100.00
59170;BME280;52474;52.236;5.114;2023-01-26T05:21:37;102524.53;;;-0.30;100.00
59170;BME280;52474;52.236;5.114;2023-01-26T05:24:03;102506.41;;;-0.38;100.00
59170;BME280;52474;52.236;5.114;2023-01-26T05:26:50;102530.53;;;-0.25;100.00
59170;BME280;52474;52.236;5.114;2023-01-26T05:29:37;102524.50;;;-0.29;100.00
59170;BME280;52474;52.236;5.114;2023-01-26T05:32:03;102520.25;;;-0.36;100.00
59170;BME280;52474;52.236;5.114;2023-01-26T05:34:29;102534.09;;;-0.31;100.00
59170;BME280;52474;52.236;5.114;2023-01-26T05:36:55;102517.66;;;-0.34;100.00
59170;BME280;52474;52.236;5.114;2023-01-26T05:39:21;102527.16;;;-0.33;100.00
59170;BME280;52474;52.236;5.114;2023-01-26T05:41:47;102523.72;;;-0.35;100.00
59170;BME280;52474;52.236;5.114;2023-01-26T05:44:48;102541.78;;;-0.23;100.00
59170;BME280;52474;52.236;5.114;2023-01-26T05:47:15;102539.13;;;-0.20;100.00
59170;BME280;52474;52.236;5.114;2023-01-26T05:49:42;102535.59;;;-0.14;100.00
59170;BME280;52474;52.236;5.114;2023-01-26T05:52:17;102551.19;;;-0.11;100.00
59170;BME280;52474;52.236;5.114;2023-01-26T05:54:43;102550.34;;;-0.13;100.00
59170;BME280;52474;52.236;5.114;2023-01-26T05:57:09;102547.75;;;-0.13;100.00
59170;BME280;52474;52.236;5.114;2023-01-26T05:59:38;102546.81;;;-0.09;100.00
59170;BME280;52474;52.236;5.114;2023-01-26T06:02:06;102550.28;;;-0.07;100.00
59170;BME280;52474;52.236;5.114;2023-01-26T06:04:32;102552.00;;;-0.08;100.00
59170;BME280;52474;52.236;5.114;2023-01-26T06:07:00;102557.19;;;-0.05;100.00
59170;BME280;52474;52.236;5.114;2023-01-26T06:09:55;102553.75;;;-0.07;100.00
59170;BME280;52474;52.236;5.114;2023-01-26T06:12:37;102548.47;;;-0.04;100.00
59170;BME280;52474;52.236;5.114;2023-01-26T06:15:31;102549.31;;;-0.02;100.00
59170;BME280;52474;52.236;5.114;2023-01-26T06:17:59;102553.63;;;0.03;100.00
59170;BME280;52474;52.236;5.114;2023-01-26T06:20:25;102560.53;;;0.05;100.00
59170;BME280;52474;52.236;5.114;2023-01-26T06:23:00;102551.81;;;0.08;100.00
59170;BME280;52474;52.236;5.114;2023-01-26T06:25:28;102527.66;;;-0.05;100.00
59170;BME280;52474;52.236;5.114;2023-01-26T06:27:57;102553.50;;;0.09;100.00
59170;BME280;52474;52.236;5.114;2023-01-26T06:30:25;102548.31;;;0.09;100.00
59170;BME280;52474;52.236;5.114;2023-01-26T06:32:54;102524.22;;;-0.07;100.00
59170;BME280;52474;52.236;5.114;2023-01-26T06:35:20;102547.56;;;-0.01;100.00
59170;BME280;52474;52.236;5.114;2023-01-26T06:37:48;102548.41;;;0.01;100.00
59170;BME280;52474;52.236;5.114;2023-01-26T06:40:15;102547.56;;;-0.01;100.00
59170;BME280;52474;52.236;5.114;2023-01-26T06:42:48;102566.53;;;0.07;100.00
59170;BME280;52474;52.236;5.114;2023-01-26T06:45:16;102576.91;;;0.12;100.00
59170;BME280;52474;52.236;5.114;2023-01-26T06:47:46;102573.50;;;0.08;100.00
59170;BME280;52474;52.236;5.114;2023-01-26T06:50:18;102562.28;;;0.02;100.00
59170;BME280;52474;52.236;5.114;2023-01-26T06:52:47;102592.53;;;0.12;100.00
59170;BME280;52474;52.236;5.114;2023-01-26T06:55:36;102576.91;;;0.12;100.00
59170;BME280;52474;52.236;5.114;2023-01-26T06:58:21;102582.13;;;0.12;100.00
59170;BME280;52474;52.236;5.114;2023-01-26T07:01:02;102584.72;;;0.15;100.00
59170;BME280;52474;52.236;5.114;2023-01-26T07:03:32;102579.50;;;0.12;100.00
59170;BME280;52474;52.236;5.114;2023-01-26T07:05:57;102585.50;;;0.20;100.00
59170;BME280;52474;52.236;5.114;2023-01-26T07:08:23;102582.81;;;0.25;100.00
59170;BME280;52474;52.236;5.114;2023-01-26T07:10:52;102588.84;;;0.27;100.00
59170;BME280;52474;52.236;5.114;2023-01-26T07:13:18;102579.44;;;0.18;100.00
59170;BME280;52474;52.236;5.114;2023-01-26T07:15:44;102578.59;;;0.17;100.00
59170;BME280;52474;52.236;5.114;2023-01-26T07:18:10;102597.53;;;0.29;100.00
59170;BME280;52474;52.236;5.114;2023-01-26T07:20:35;102586.38;;;0.19;100.00
59170;BME280;52474;52.236;5.114;2023-01-26T07:23:01;102603.56;;;0.31;100.00
59170;BME280;52474;52.236;5.114;2023-01-26T07:25:27;102607.00;;;0.34;100.00
59170;BME280;52474;52.236;5.114;2023-01-26T07:27:58;102604.38;;;0.36;100.00
59170;BME280;52474;52.236;5.114;2023-01-26T07:30:24;102609.50;;;0.42;100.00
59170;BME280;52474;52.236;5.114;2023-01-26T07:32:50;102608.53;;;0.48;100.00
59170;BME280;52474;52.236;5.114;2023-01-26T07:35:16;102611.97;;;0.51;100.00
59170;BME280;52474;52.236;5.114;2023-01-26T07:37:42;102612.78;;;0.55;100.00
59170;BME280;52474;52.236;5.114;2023-01-26T07:40:08;102614.44;;;0.59;100.00
59170;BME280;52474;52.236;5.114;2023-01-26T07:42:34;102624.78;;;0.65;100.00
59170;BME280;52474;52.236;5.114;2023-01-26T07:45:16;102624.75;;;0.68;100.00
59170;BME280;52474;52.236;5.114;2023-01-26T07:47:44;102620.25;;;0.76;100.00
59170;BME280;52474;52.236;5.114;2023-01-26T07:50:10;102629.81;;;0.79;100.00
59170;BME280;52474;52.236;5.114;2023-01-26T07:52:36;102621.97;;;0.79;100.00
59170;BME280;52474;52.236;5.114;2023-01-26T07:55:02;102622.59;;;0.95;100.00
59170;BME280;52474;52.236;5.114;2023-01-26T07:57:28;102607.84;;;0.94;100.00
59170;BME280;52474;52.236;5.114;2023-01-26T07:59:54;102624.97;;;1.09;100.00
59170;BME280;52474;52.236;5.114;2023-01-26T08:02:19;102622.25;;;1.13;100.00
59170;BME280;52474;52.236;5.114;2023-01-26T08:04:45;102624.78;;;1.19;100.00
59170;BME280;52474;52.236;5.114;2023-01-26T08:07:11;102629.78;;;1.32;100.00
59170;BME280;52474;52.236;5.114;2023-01-26T08:09:37;102622.56;;;1.46;100.00
59170;BME280;52474;52.236;5.114;2023-01-26T08:12:03;102626.63;;;1.61;100.00
59170;BME280;52474;52.236;5.114;2023-01-26T08:14:28;102613.41;;;1.68;100.00
59170;BME280;52474;52.236;5.114;2023-01-26T08:16:54;102622.56;;;1.89;100.00
59170;BME280;52474;52.236;5.114;2023-01-26T08:19:20;102613.44;;;2.09;100.00
59170;BME280;52474;52.236;5.114;2023-01-26T08:21:45;102624.66;;;2.53;100.00
59170;BME280;52474;52.236;5.114;2023-01-26T08:24:11;102629.09;;;2.87;100.00
59170;BME280;52474;52.236;5.114;2023-01-26T08:26:38;102630.41;;;3.05;100.00
59170;BME280;52474;52.236;5.114;2023-01-26T08:29:04;102614.16;;;2.92;100.00
59170;BME280;52474;52.236;5.114;2023-01-26T08:31:29;102636.97;;;3.21;100.00
59170;BME280;52474;52.236;5.114;2023-01-26T08:33:57;102639.91;;;3.41;100.00
59170;BME280;52474;52.236;5.114;2023-01-26T08:36:22;102632.03;;;3.43;100.00
59170;BME280;52474;52.236;5.114;2023-01-26T08:38:49;102639.47;;;3.58;100.00
59170;BME280;52474;52.236;5.114;2023-01-26T08:41:15;102646.97;;;3.72;100.00
59170;BME280;52474;52.236;5.114;2023-01-26T08:43:40;102647.56;;;3.82;100.00
59170;BME280;52474;52.236;5.114;2023-01-26T08:46:06;102650.72;;;3.93;100.00
59170;BME280;52474;52.236;5.114;2023-01-26T08:48:32;102645.25;;;4.01;100.00
59170;BME280;52474;52.236;5.114;2023-01-26T08:51:00;102655.34;;;4.15;100.00
59170;BME280;52474;52.236;5.114;2023-01-26T08:53:29;102649.91;;;4.21;100.00
59170;BME280;52474;52.236;5.114;2023-01-26T08:55:55;102663.44;;;4.37;100.00
59170;BME280;52474;52.236;5.114;2023-01-26T08:58:21;102659.91;;;4.38;100.00
59170;BME280;52474;52.236;5.114;2023-01-26T09:00:46;102666.69;;;4.45;100.00
59170;BME280;52474;52.236;5.114;2023-01-26T09:03:13;102658.97;;;4.68;100.00
59170;BME280;52474;52.236;5.114;2023-01-26T09:05:39;102665.03;;;4.70;100.00
59170;BME280;52474;52.236;5.114;2023-01-26T09:08:07;102671.28;;;4.66;100.00
59170;BME280;52474;52.236;5.114;2023-01-26T09:10:33;102667.94;;;4.61;100.00
59170;BME280;52474;52.236;5.114;2023-01-26T09:12:59;102672.13;;;4.67;100.00
59170;BME280;52474;52.236;5.114;2023-01-26T09:15:26;102672.78;;;4.75;100.00
59170;BME280;52474;52.236;5.114;2023-01-26T09:17:52;102667.53;;;4.75;100.00
59170;BME280;52474;52.236;5.114;2023-01-26T09:20:18;102656.53;;;4.90;100.00
59170;BME280;52474;52.236;5.114;2023-01-26T09:22:45;102673.28;;;5.13;100.00
59170;BME280;52474;52.236;5.114;2023-01-26T09:25:11;102678.41;;;5.18;100.00
59170;BME280;52474;52.236;5.114;2023-01-26T09:27:37;102668.97;;;5.12;100.00
59170;BME280;52474;52.236;5.114;2023-01-26T09:30:04;102677.78;;;5.09;100.00
59170;BME280;52474;52.236;5.114;2023-01-26T09:32:31;102670.50;;;5.18;100.00
59170;BME280;52474;52.236;5.114;2023-01-26T09:34:57;102667.63;;;5.25;100.00
59170;BME280;52474;52.236;5.114;2023-01-26T09:37:22;102685.56;;;5.64;100.00
59170;BME280;52474;52.236;5.114;2023-01-26T09:39:48;102685.81;;;5.81;100.00
59170;BME280;52474;52.236;5.114;2023-01-26T09:48:02;102674.50;;;6.05;100.00
59170;BME280;52474;52.236;5.114;2023-01-26T09:50:46;102661.91;;;6.13;100.00
59170;BME280;52474;52.236;5.114;2023-01-26T09:53:18;102667.97;;;6.38;100.00
59170;BME280;52474;52.236;5.114;2023-01-26T09:55:47;102663.59;;;6.37;100.00
59170;BME280;52474;52.236;5.114;2023-01-26T09:58:28;102673.44;;;6.56;100.00
59170;BME280;52474;52.236;5.114;2023-01-26T10:00:59;102673.25;;;6.82;100.00
59170;BME280;52474;52.236;5.114;2023-01-26T10:03:38;102662.06;;;7.20;100.00
59170;BME280;52474;52.236;5.114;2023-01-26T10:09:13;102649.91;;;6.73;100.00
59170;BME280;52474;52.236;5.114;2023-01-26T10:12:01;102652.09;;;10.35;100.00
59170;BME280;52474;52.236;5.114;2023-01-26T10:14:44;102635.56;;;13.18;100.00
59170;BME280;52474;52.236;5.114;2023-01-26T10:17:19;102648.31;;;14.28;100.00
59170;BME280;52474;52.236;5.114;2023-01-26T10:19:49;102641.84;;;15.15;100.00
59170;BME280;52474;52.236;5.114;2023-01-26T10:22:24;102631.44;;;15.35;100.00
59170;BME280;52474;52.236;5.114;2023-01-26T10:24:54;102635.13;;;15.56;100.00
59170;BME280;52474;52.236;5.114;2023-01-26T10:27:21;102627.13;;;16.13;100.00
59170;BME280;52474;52.236;5.114;2023-01-26T10:29:47;102640.69;;;16.75;100.00
59170;BME280;52474;52.236;5.114;2023-01-26T10:32:14;102644.59;;;17.76;100.00
59170;BME280;52474;52.236;5.114;2023-01-26T10:34:41;102648.09;;;17.88;100.00
59170;BME280;52474;52.236;5.114;2023-01-26T10:37:27;102633.72;;;18.49;100.00
59170;BME280;52474;52.236;5.114;2023-01-26T10:40:02;102638.97;;;18.90;100.00
59170;BME280;52474;52.236;5.114;2023-01-26T10:42:31;102649.69;;;15.63;100.00
59170;BME280;52474;52.236;5.114;2023-01-26T10:45:05;102656.72;;;12.79;100.00
59170;BME280;52474;52.236;5.114;2023-01-26T10:47:31;102654.22;;;11.06;100.00
59170;BME280;52474;52.236;5.114;2023-01-26T10:50:21;102662.94;;;10.30;100.00
59170;BME280;52474;52.236;5.114;2023-01-26T10:53:01;102665.13;;;12.32;100.00
59170;BME280;52474;52.236;5.114;2023-01-26T10:55:28;102658.22;;;16.14;100.00
59170;BME280;52474;52.236;5.114;2023-01-26T10:57:54;102664.56;;;12.68;100.00
59170;BME280;52474;52.236;5.114;2023-01-26T11:02:54;102659.69;;;13.55;100.00
59170;BME280;52474;52.236;5.114;2023-01-26T11:05:26;102659.31;;;12.81;100.00
59170;BME280;52474;52.236;5.114;2023-01-26T11:07:53;102654.53;;;12.86;100.00
59170;BME280;52474;52.236;5.114;2023-01-26T11:10:37;102627.59;;;11.07;100.00
59170;BME280;52474;52.236;5.114;2023-01-26T11:13:17;102649.00;;;12.20;100.00
59170;BME280;52474;52.236;5.114;2023-01-26T11:15:46;102646.75;;;11.12;100.00
59170;BME280;52474;52.236;5.114;2023-01-26T11:21:05;102629.84;;;12.57;100.00
59170;BME280;52474;52.236;5.114;2023-01-26T11:37:42;102639.69;;;15.43;100.00
59170;BME280;52474;52.236;5.114;2023-01-26T11:48:24;102639.03;;;18.30;100.00
59170;BME280;52474;52.236;5.114;2023-01-26T11:58:55;102631.13;;;15.62;100.00
59170;BME280;52474;52.236;5.114;2023-01-26T12:01:29;102629.47;;;14.18;100.00
59170;BME280;52474;52.236;5.114;2023-01-26T12:03:56;102632.66;;;14.23;100.00
59170;BME280;52474;52.236;5.114;2023-01-26T12:06:35;102623.13;;;17.67;100.00
59170;BME280;52474;52.236;5.114;2023-01-26T12:11:41;102618.88;;;17.64;100.00
59170;BME280;52474;52.236;5.114;2023-01-26T12:14:37;102623.47;;;16.25;100.00
59170;BME280;52474;52.236;5.114;2023-01-26T12:17:26;102620.78;;;17.22;100.00
59170;BME280;52474;52.236;5.114;2023-01-26T12:25:35;102618.22;;;10.24;100.00
59170;BME280;52474;52.236;5.114;2023-01-26T12:30:34;102619.47;;;8.65;100.00
59170;BME280;52474;52.236;5.114;2023-01-26T12:33:01;102619.72;;;8.41;100.00
59170;BME280;52474;52.236;5.114;2023-01-26T12:35:55;102611.56;;;8.46;100.00
59170;BME280;52474;52.236;5.114;2023-01-26T12:41:37;102603.16;;;8.18;100.00
59170;BME280;52474;52.236;5.114;2023-01-26T12:44:21;102580.72;;;8.46;100.00
59170;BME280;52474;52.236;5.114;2023-01-26T12:46:53;102594.09;;;8.43;100.00
59170;BME280;52474;52.236;5.114;2023-01-26T12:49:30;102592.22;;;8.81;100.00
59170;BME280;52474;52.236;5.114;2023-01-26T12:52:11;102573.50;;;9.03;100.00
59170;BME280;52474;52.236;5.114;2023-01-26T12:54:46;102578.63;;;9.40;100.00
59170;BME280;52474;52.236;5.114;2023-01-26T12:57:19;102572.63;;;9.54;100.00
59170;BME280;52474;52.236;5.114;2023-01-26T12:59:45;102585.75;;;8.70;100.00
59170;BME280;52474;52.236;5.114;2023-01-26T13:04:42;102586.56;;;8.34;100.00
59170;BME280;52474;52.236;5.114;2023-01-26T13:07:28;102583.00;;;10.69;100.00
59170;BME280;52474;52.236;5.114;2023-01-26T13:12:50;102579.53;;;9.56;100.00
59170;BME280;52474;52.236;5.114;2023-01-26T13:15:27;102589.25;;;8.88;100.00
59170;BME280;52474;52.236;5.114;2023-01-26T13:17:57;102584.94;;;8.31;100.00
59170;BME280;52474;52.236;5.114;2023-01-26T13:22:53;102576.81;;;8.17;100.00
59170;BME280;52474;52.236;5.114;2023-01-26T13:25:32;102579.22;;;7.85;100.00
59170;BME280;52474;52.236;5.114;2023-01-26T13:28:02;102582.56;;;8.08;100.00
59170;BME280;52474;52.236;5.114;2023-01-26T13:30:42;102570.84;;;7.94;100.00
59170;BME280;52474;52.236;5.114;2023-01-26T13:33:15;102585.09;;;8.09;100.00
59170;BME280;52474;52.236;5.114;2023-01-26T13:35:42;102578.69;;;7.77;100.00
59170;BME280;52474;52.236;5.114;2023-01-26T13:40:56;102593.53;;;7.99;100.00
59170;BME280;52474;52.236;5.114;2023-01-26T13:43:45;102591.94;;;7.94;100.00
59170;BME280;52474;52.236;5.114;2023-01-26T13:46:47;102591.75;;;7.80;100.00
59170;BME280;52474;52.236;5.114;2023-01-26T13:49:36;102594.31;;;8.01;100.00
59170;BME280;52474;52.236;5.114;2023-01-26T13:52:03;102586.81;;;7.72;100.00
59170;BME280;52474;52.236;5.114;2023-01-26T13:54:29;102591.50;;;7.26;100.00
59170;BME280;52474;52.236;5.114;2023-01-26T13:57:05;102598.16;;;6.94;100.00
59170;BME280;52474;52.236;5.114;2023-01-26T13:59:31;102596.69;;;6.87;100.00
59170;BME280;52474;52.236;5.114;2023-01-26T14:01:58;102578.31;;;6.85;100.00
59170;BME280;52474;52.236;5.114;2023-01-26T14:04:30;102590.59;;;7.07;100.00
59170;BME280;52474;52.236;5.114;2023-01-26T14:07:14;102580.94;;;7.06;100.00
59170;BME280;52474;52.236;5.114;2023-01-26T14:10:00;102585.66;;;6.99;100.00
59170;BME280;52474;52.236;5.114;2023-01-26T14:12:30;102589.91;;;7.22;100.00